sensor_id;sensor_type;location;lat;lon;timestamp;P1;durP1;ratioP1;P2;durP2;ratioP2
71490;SDS011;59307;50.060;9.150;2022-08-03T13:26:49;4.07;;;2.40;;
71490;SDS011;59307;50.060;9.150;2022-08-03T13:29:15;3.83;;;2.57;;
71490;SDS011;59307;50.060;9.150;2022-08-03T13:31:41;3.53;;;2.58;;
71490;SDS011;59307;50.060;9.150;2022-08-03T13:34:06;3.00;;;2.53;;
71490;SDS011;59307;50.060;9.150;2022-08-03T13:36:31;3.13;;;2.30;;
71490;SDS011;59307;50.060;9.150;2022-08-03T13:38:57;2.57;;;2.33;;
71490;SDS011;59307;50.060;9.150;2022-08-03T13:41:22;3.57;;;2.60;;
71490;SDS011;59307;50.060;9.150;2022-08-03T13:43:47;4.83;;;2.43;;
71490;SDS011;59307;50.060;9.150;2022-08-03T13:46:12;3.67;;;2.30;;
71490;SDS011;59307;50.060;9.150;2022-08-03T13:48:38;3.33;;;2.40;;
71490;SDS011;59307;50.060;9.150;2022-08-03T13:51:03;2.77;;;2.40;;
71490;SDS011;59307;50.060;9.150;2022-08-03T13:53:29;4.23;;;2.17;;
71490;SDS011;59307;50.060;9.150;2022-08-03T13:55:54;4.73;;;2.40;;
71490;SDS011;59307;50.060;9.150;2022-08-03T13:58:19;2.83;;;2.10;;
71490;SDS011;59307;50.060;9.150;2022-08-03T14:00:45;4.60;;;2.67;;
71490;SDS011;59307;50.060;9.150;2022-08-03T14:03:10;2.50;;;2.30;;
71490;SDS011;59307;50.060;9.150;2022-08-03T14:05:35;3.73;;;2.57;;
71490;SDS011;59307;50.060;9.150;2022-08-03T14:08:02;2.57;;;2.37;;
71490;SDS011;59307;50.060;9.150;2022-08-03T14:10:34;2.45;;;2.25;;
71490;SDS011;59307;50.060;9.150;2022-08-03T14:13:01;2.78;;;2.40;;
71490;SDS011;59307;50.060;9.150;2022-08-03T14:15:27;3.28;;;2.53;;
71490;SDS011;59307;50.060;9.150;2022-08-03T14:17:52;5.10;;;2.90;;
71490;SDS011;59307;50.060;9.150;2022-08-03T14:20:18;2.87;;;2.50;;
71490;SDS011;59307;50.060;9.150;2022-08-03T14:22:43;2.73;;;2.53;;
71490;SDS011;59307;50.060;9.150;2022-08-03T14:25:08;3.17;;;2.43;;
71490;SDS011;59307;50.060;9.150;2022-08-03T14:27:34;2.80;;;2.60;;
71490;SDS011;59307;50.060;9.150;2022-08-03T14:29:59;3.73;;;2.40;;
71490;SDS011;59307;50.060;9.150;2022-08-03T14:32:25;4.10;;;2.63;;
71490;SDS011;59307;50.060;9.150;2022-08-03T14:34:51;3.10;;;2.50;;
71490;SDS011;59307;50.060;9.150;2022-08-03T14:37:17;3.33;;;2.30;;
71490;SDS011;59307;50.060;9.150;2022-08-03T14:39:42;4.13;;;2.70;;
71490;SDS011;59307;50.060;9.150;2022-08-03T14:42:07;5.90;;;2.27;;
71490;SDS011;59307;50.060;9.150;2022-08-03T14:44:33;4.83;;;2.20;;
71490;SDS011;59307;50.060;9.150;2022-08-03T14:46:58;2.90;;;2.60;;
71490;SDS011;59307;50.060;9.150;2022-08-03T14:49:23;3.05;;;2.60;;
71490;SDS011;59307;50.060;9.150;2022-08-03T14:51:50;4.07;;;2.50;;
71490;SDS011;59307;50.060;9.150;2022-08-03T14:54:15;2.87;;;2.37;;
71490;SDS011;59307;50.060;9.150;2022-08-03T14:56:40;3.57;;;2.70;;
71490;SDS011;59307;50.060;9.150;2022-08-03T14:59:06;2.30;;;2.00;;
71490;SDS011;59307;50.060;9.150;2022-08-03T15:01:31;3.60;;;2.00;;
71490;SDS011;59307;50.060;9.150;2022-08-03T15:03:56;2.40;;;2.00;;
71490;SDS011;59307;50.060;9.150;2022-08-03T15:06:21;5.50;;;2.00;;
71490;SDS011;59307;50.060;9.150;2022-08-03T15:08:47;3.67;;;2.07;;
71490;SDS011;59307;50.060;9.150;2022-08-03T15:11:13;2.08;;;1.85;;
71490;SDS011;59307;50.060;9.150;2022-08-03T15:13:39;4.63;;;2.00;;
71490;SDS011;59307;50.060;9.150;2022-08-03T15:16:04;5.77;;;2.10;;
71490;SDS011;59307;50.060;9.150;2022-08-03T15:18:29;2.20;;;2.00;;
71490;SDS011;59307;50.060;9.150;2022-08-03T15:20:55;4.47;;;2.20;;
71490;SDS011;59307;50.060;9.150;2022-08-03T15:23:20;4.80;;;2.07;;
71490;SDS011;59307;50.060;9.150;2022-08-03T15:25:46;2.72;;;2.00;;
71490;SDS011;59307;50.060;9.150;2022-08-03T15:28:12;5.17;;;2.30;;
71490;SDS011;59307;50.060;9.150;2022-08-03T15:30:37;2.83;;;2.20;;
71490;SDS011;59307;50.060;9.150;2022-08-03T15:33:02;4.83;;;2.20;;
71490;SDS011;59307;50.060;9.150;2022-08-03T15:35:28;2.67;;;1.95;;
71490;SDS011;59307;50.060;9.150;2022-08-03T15:37:54;3.97;;;2.27;;
71490;SDS011;59307;50.060;9.150;2022-08-03T15:40:19;5.77;;;2.40;;
71490;SDS011;59307;50.060;9.150;2022-08-03T15:42:44;2.83;;;2.10;;
71490;SDS011;59307;50.060;9.150;2022-08-03T15:45:10;3.70;;;2.07;;
71490;SDS011;59307;50.060;9.150;2022-08-03T15:47:35;4.93;;;2.37;;
71490;SDS011;59307;50.060;9.150;2022-08-03T15:50:00;3.53;;;2.13;;
71490;SDS011;59307;50.060;9.150;2022-08-03T15:52:26;2.90;;;2.40;;
71490;SDS011;59307;50.060;9.150;2022-08-03T15:54:52;3.30;;;2.20;;
71490;SDS011;59307;50.060;9.150;2022-08-03T15:57:17;4.70;;;2.30;;
71490;SDS011;59307;50.060;9.150;2022-08-03T15:59:43;3.65;;;2.10;;
71490;SDS011;59307;50.060;9.150;2022-08-03T16:02:08;5.80;;;2.43;;
71490;SDS011;59307;50.060;9.150;2022-08-03T16:04:34;6.67;;;2.23;;
71490;SDS011;59307;50.060;9.150;2022-08-03T16:06:59;3.60;;;2.40;;
71490;SDS011;59307;50.060;9.150;2022-08-03T16:09:24;3.20;;;2.30;;
71490;SDS011;59307;50.060;9.150;2022-08-03T16:11:49;2.80;;;2.20;;
71490;SDS011;59307;50.060;9.150;2022-08-03T16:14:15;4.07;;;2.13;;
71490;SDS011;59307;50.060;9.150;2022-08-03T16:16:40;3.20;;;2.50;;
71490;SDS011;59307;50.060;9.150;2022-08-03T16:19:05;3.43;;;2.20;;
71490;SDS011;59307;50.060;9.150;2022-08-03T16:21:31;4.87;;;2.30;;
71490;SDS011;59307;50.060;9.150;2022-08-03T16:23:56;4.65;;;2.33;;
71490;SDS011;59307;50.060;9.150;2022-08-03T16:26:22;3.90;;;2.17;;
71490;SDS011;59307;50.060;9.150;2022-08-03T16:28:47;4.23;;;2.30;;
71490;SDS011;59307;50.060;9.150;2022-08-03T16:31:12;4.87;;;2.70;;
71490;SDS011;59307;50.060;9.150;2022-08-03T16:33:38;8.03;;;2.40;;
71490;SDS011;59307;50.060;9.150;2022-08-03T16:36:04;9.23;;;2.30;;
71490;SDS011;59307;50.060;9.150;2022-08-03T16:38:29;3.47;;;2.50;;
71490;SDS011;59307;50.060;9.150;2022-08-03T16:40:55;5.40;;;2.20;;
71490;SDS011;59307;50.060;9.150;2022-08-03T16:43:20;4.47;;;2.80;;
71490;SDS011;59307;50.060;9.150;2022-08-03T16:45:46;8.15;;;2.90;;
71490;SDS011;59307;50.060;9.150;2022-08-03T16:48:12;3.40;;;2.47;;
71490;SDS011;59307;50.060;9.150;2022-08-03T16:50:38;3.58;;;2.55;;
71490;SDS011;59307;50.060;9.150;2022-08-03T16:53:05;3.90;;;2.47;;
71490;SDS011;59307;50.060;9.150;2022-08-03T16:55:32;5.05;;;2.75;;
71490;SDS011;59307;50.060;9.150;2022-08-03T16:57:58;3.53;;;2.20;;
71490;SDS011;59307;50.060;9.150;2022-08-03T17:00:26;6.13;;;2.77;;
71490;SDS011;59307;50.060;9.150;2022-08-03T17:02:52;5.43;;;2.50;;
71490;SDS011;59307;50.060;9.150;2022-08-03T17:05:19;4.45;;;2.55;;
71490;SDS011;59307;50.060;9.150;2022-08-03T17:07:45;3.63;;;2.50;;
71490;SDS011;59307;50.060;9.150;2022-08-03T17:10:14;4.68;;;2.65;;
71490;SDS011;59307;50.060;9.150;2022-08-03T17:12:39;4.15;;;2.38;;
71490;SDS011;59307;50.060;9.150;2022-08-03T17:15:05;4.93;;;2.90;;
71490;SDS011;59307;50.060;9.150;2022-08-03T17:17:31;3.97;;;2.38;;
71490;SDS011;59307;50.060;9.150;2022-08-03T17:19:58;5.30;;;2.60;;
71490;SDS011;59307;50.060;9.150;2022-08-03T17:22:26;4.97;;;2.58;;
71490;SDS011;59307;50.060;9.150;2022-08-03T17:24:55;2.85;;;2.25;;
71490;SDS011;59307;50.060;9.150;2022-08-03T17:27:25;3.67;;;2.28;;
71490;SDS011;59307;50.060;9.150;2022-08-03T17:30:13;4.07;;;2.40;;
71490;SDS011;59307;50.060;9.150;2022-08-03T17:32:40;6.30;;;2.60;;
71490;SDS011;59307;50.060;9.150;2022-08-03T17:35:07;3.90;;;2.60;;
71490;SDS011;59307;50.060;9.150;2022-08-03T17:37:33;4.95;;;2.40;;
71490;SDS011;59307;50.060;9.150;2022-08-03T17:39:59;3.75;;;2.40;;
71490;SDS011;59307;50.060;9.150;2022-08-03T17:42:25;3.80;;;2.50;;
71490;SDS011;59307;50.060;9.150;2022-08-03T17:44:51;4.50;;;2.30;;
71490;SDS011;59307;50.060;9.150;2022-08-03T17:47:18;7.75;;;2.95;;
71490;SDS011;59307;50.060;9.150;2022-08-03T17:49:44;4.73;;;2.30;;
71490;SDS011;59307;50.060;9.150;2022-08-03T17:52:43;4.07;;;2.53;;
71490;SDS011;59307;50.060;9.150;2022-08-03T17:55:20;3.60;;;2.40;;
71490;SDS011;59307;50.060;9.150;2022-08-03T17:57:52;4.75;;;2.45;;
71490;SDS011;59307;50.060;9.150;2022-08-03T18:00:36;4.82;;;2.60;;
71490;SDS011;59307;50.060;9.150;2022-08-03T18:06:04;3.38;;;2.60;;
71490;SDS011;59307;50.060;9.150;2022-08-03T18:08:37;3.53;;;2.53;;
71490;SDS011;59307;50.060;9.150;2022-08-03T18:11:08;3.08;;;2.58;;
71490;SDS011;59307;50.060;9.150;2022-08-03T18:13:38;5.75;;;2.70;;
71490;SDS011;59307;50.060;9.150;2022-08-03T18:16:10;4.70;;;2.20;;
71490;SDS011;59307;50.060;9.150;2022-08-03T18:18:40;7.53;;;2.42;;
71490;SDS011;59307;50.060;9.150;2022-08-03T18:21:09;4.90;;;2.70;;
71490;SDS011;59307;50.060;9.150;2022-08-03T18:23:36;3.63;;;2.50;;
71490;SDS011;59307;50.060;9.150;2022-08-03T18:26:04;7.68;;;2.83;;
71490;SDS011;59307;50.060;9.150;2022-08-03T18:28:33;4.33;;;2.63;;
71490;SDS011;59307;50.060;9.150;2022-08-03T18:31:00;5.38;;;2.63;;
71490;SDS011;59307;50.060;9.150;2022-08-03T18:33:28;6.03;;;2.70;;
71490;SDS011;59307;50.060;9.150;2022-08-03T18:35:56;3.72;;;2.40;;
71490;SDS011;59307;50.060;9.150;2022-08-03T18:38:22;4.30;;;2.43;;
71490;SDS011;59307;50.060;9.150;2022-08-03T18:40:49;4.63;;;2.75;;
71490;SDS011;59307;50.060;9.150;2022-08-03T18:43:14;3.17;;;2.40;;
71490;SDS011;59307;50.060;9.150;2022-08-03T18:45:41;5.95;;;3.08;;
71490;SDS011;59307;50.060;9.150;2022-08-03T18:48:16;3.83;;;2.60;;
71490;SDS011;59307;50.060;9.150;2022-08-03T18:51:09;3.67;;;2.50;;
71490;SDS011;59307;50.060;9.150;2022-08-03T18:54:00;7.37;;;2.90;;
71490;SDS011;59307;50.060;9.150;2022-08-03T18:59:09;4.45;;;2.65;;
71490;SDS011;59307;50.060;9.150;2022-08-03T19:01:43;3.70;;;2.65;;
71490;SDS011;59307;50.060;9.150;2022-08-03T19:04:13;5.00;;;2.55;;
71490;SDS011;59307;50.060;9.150;2022-08-03T19:06:44;5.27;;;2.47;;
71490;SDS011;59307;50.060;9.150;2022-08-03T19:09:12;4.93;;;2.70;;
71490;SDS011;59307;50.060;9.150;2022-08-03T19:11:52;4.55;;;2.95;;
71490;SDS011;59307;50.060;9.150;2022-08-03T19:14:25;3.83;;;2.80;;
71490;SDS011;59307;50.060;9.150;2022-08-03T19:16:54;3.88;;;2.40;;
71490;SDS011;59307;50.060;9.150;2022-08-03T19:19:27;5.13;;;2.40;;
71490;SDS011;59307;50.060;9.150;2022-08-03T19:21:53;3.95;;;2.83;;
71490;SDS011;59307;50.060;9.150;2022-08-03T19:24:19;3.28;;;2.50;;
71490;SDS011;59307;50.060;9.150;2022-08-03T19:26:48;8.55;;;3.30;;
71490;SDS011;59307;50.060;9.150;2022-08-03T19:29:15;6.63;;;2.95;;
71490;SDS011;59307;50.060;9.150;2022-08-03T19:31:43;4.83;;;2.93;;
71490;SDS011;59307;50.060;9.150;2022-08-03T19:34:09;4.72;;;2.65;;
71490;SDS011;59307;50.060;9.150;2022-08-03T19:36:36;4.00;;;2.67;;
71490;SDS011;59307;50.060;9.150;2022-08-03T19:39:03;3.63;;;2.92;;
71490;SDS011;59307;50.060;9.150;2022-08-03T19:41:33;4.97;;;2.95;;
71490;SDS011;59307;50.060;9.150;2022-08-03T19:44:10;4.23;;;2.93;;
71490;SDS011;59307;50.060;9.150;2022-08-03T19:47:00;4.75;;;2.85;;
71490;SDS011;59307;50.060;9.150;2022-08-03T19:49:35;5.53;;;3.05;;
71490;SDS011;59307;50.060;9.150;2022-08-03T19:52:03;5.90;;;3.00;;
71490;SDS011;59307;50.060;9.150;2022-08-03T19:54:41;4.07;;;2.90;;
71490;SDS011;59307;50.060;9.150;2022-08-03T19:57:15;8.57;;;2.97;;
71490;SDS011;59307;50.060;9.150;2022-08-03T19:59:43;4.32;;;3.00;;
71490;SDS011;59307;50.060;9.150;2022-08-03T20:02:09;4.28;;;3.00;;
71490;SDS011;59307;50.060;9.150;2022-08-03T20:04:35;4.83;;;3.07;;
71490;SDS011;59307;50.060;9.150;2022-08-03T20:07:02;4.45;;;3.20;;
71490;SDS011;59307;50.060;9.150;2022-08-03T20:09:28;5.22;;;2.85;;
71490;SDS011;59307;50.060;9.150;2022-08-03T20:11:56;4.32;;;3.10;;
71490;SDS011;59307;50.060;9.150;2022-08-03T20:14:22;4.60;;;3.20;;
71490;SDS011;59307;50.060;9.150;2022-08-03T20:16:48;5.40;;;3.00;;
71490;SDS011;59307;50.060;9.150;2022-08-03T20:19:15;6.05;;;3.20;;
71490;SDS011;59307;50.060;9.150;2022-08-03T20:21:44;7.27;;;3.27;;
71490;SDS011;59307;50.060;9.150;2022-08-03T20:24:12;5.28;;;2.80;;
71490;SDS011;59307;50.060;9.150;2022-08-03T20:26:43;4.65;;;3.22;;
71490;SDS011;59307;50.060;9.150;2022-08-03T20:29:12;4.90;;;2.90;;
71490;SDS011;59307;50.060;9.150;2022-08-03T20:31:39;4.00;;;2.90;;
71490;SDS011;59307;50.060;9.150;2022-08-03T20:34:05;6.87;;;3.47;;
71490;SDS011;59307;50.060;9.150;2022-08-03T20:36:30;9.70;;;3.20;;
71490;SDS011;59307;50.060;9.150;2022-08-03T20:38:56;5.07;;;3.27;;
71490;SDS011;59307;50.060;9.150;2022-08-03T20:41:21;5.10;;;3.30;;
71490;SDS011;59307;50.060;9.150;2022-08-03T20:43:47;5.47;;;3.10;;
71490;SDS011;59307;50.060;9.150;2022-08-03T20:46:13;4.93;;;3.30;;
71490;SDS011;59307;50.060;9.150;2022-08-03T20:48:41;5.03;;;3.20;;
71490;SDS011;59307;50.060;9.150;2022-08-03T20:51:07;6.55;;;2.80;;
71490;SDS011;59307;50.060;9.150;2022-08-03T20:53:32;5.83;;;3.23;;
71490;SDS011;59307;50.060;9.150;2022-08-03T20:55:59;5.45;;;3.17;;
71490;SDS011;59307;50.060;9.150;2022-08-03T20:58:24;4.38;;;2.88;;
71490;SDS011;59307;50.060;9.150;2022-08-03T21:00:50;4.87;;;3.47;;
71490;SDS011;59307;50.060;9.150;2022-08-03T21:03:16;5.90;;;3.20;;
71490;SDS011;59307;50.060;9.150;2022-08-03T21:05:43;4.22;;;3.20;;
71490;SDS011;59307;50.060;9.150;2022-08-03T21:08:10;4.20;;;3.00;;
71490;SDS011;59307;50.060;9.150;2022-08-03T21:10:38;5.10;;;3.22;;
71490;SDS011;59307;50.060;9.150;2022-08-03T21:13:10;5.15;;;3.30;;
71490;SDS011;59307;50.060;9.150;2022-08-03T21:15:40;4.32;;;2.85;;
71490;SDS011;59307;50.060;9.150;2022-08-03T21:18:10;4.60;;;3.10;;
71490;SDS011;59307;50.060;9.150;2022-08-03T21:20:37;4.63;;;3.00;;
71490;SDS011;59307;50.060;9.150;2022-08-03T21:23:05;3.30;;;2.90;;
71490;SDS011;59307;50.060;9.150;2022-08-03T21:25:33;4.32;;;3.20;;
71490;SDS011;59307;50.060;9.150;2022-08-03T21:27:59;4.60;;;3.03;;
71490;SDS011;59307;50.060;9.150;2022-08-03T21:30:27;4.95;;;3.50;;
71490;SDS011;59307;50.060;9.150;2022-08-03T21:32:54;3.70;;;2.78;;
71490;SDS011;59307;50.060;9.150;2022-08-03T21:35:22;5.88;;;3.28;;
71490;SDS011;59307;50.060;9.150;2022-08-03T21:37:48;6.50;;;3.57;;
71490;SDS011;59307;50.060;9.150;2022-08-03T21:40:33;4.93;;;3.53;;
71490;SDS011;59307;50.060;9.150;2022-08-03T21:42:58;5.40;;;3.53;;
71490;SDS011;59307;50.060;9.150;2022-08-03T21:45:24;7.60;;;3.43;;
71490;SDS011;59307;50.060;9.150;2022-08-03T21:47:49;5.47;;;2.90;;
71490;SDS011;59307;50.060;9.150;2022-08-03T21:50:14;4.47;;;3.03;;
71490;SDS011;59307;50.060;9.150;2022-08-03T21:52:42;5.77;;;3.53;;
71490;SDS011;59307;50.060;9.150;2022-08-03T21:55:12;5.28;;;3.35;;
71490;SDS011;59307;50.060;9.150;2022-08-03T21:57:39;6.35;;;3.42;;
71490;SDS011;59307;50.060;9.150;2022-08-03T22:00:12;4.13;;;3.03;;
71490;SDS011;59307;50.060;9.150;2022-08-03T22:02:40;4.65;;;3.20;;
71490;SDS011;59307;50.060;9.150;2022-08-03T22:05:08;4.57;;;3.40;;
71490;SDS011;59307;50.060;9.150;2022-08-03T22:07:34;4.07;;;3.20;;
71490;SDS011;59307;50.060;9.150;2022-08-03T22:10:01;4.17;;;3.10;;
71490;SDS011;59307;50.060;9.150;2022-08-03T22:12:29;5.00;;;3.53;;
71490;SDS011;59307;50.060;9.150;2022-08-03T22:14:56;5.68;;;3.25;;
71490;SDS011;59307;50.060;9.150;2022-08-03T22:17:23;4.30;;;3.40;;
71490;SDS011;59307;50.060;9.150;2022-08-03T22:19:49;5.90;;;3.40;;
71490;SDS011;59307;50.060;9.150;2022-08-03T22:22:18;4.13;;;3.13;;
71490;SDS011;59307;50.060;9.150;2022-08-03T22:24:45;5.53;;;3.58;;
71490;SDS011;59307;50.060;9.150;2022-08-03T22:27:12;4.77;;;3.20;;
71490;SDS011;59307;50.060;9.150;2022-08-03T22:29:54;4.63;;;3.20;;
71490;SDS011;59307;50.060;9.150;2022-08-03T22:32:20;5.43;;;3.60;;
71490;SDS011;59307;50.060;9.150;2022-08-03T22:34:46;4.83;;;3.00;;
71490;SDS011;59307;50.060;9.150;2022-08-03T22:37:14;6.72;;;3.22;;
71490;SDS011;59307;50.060;9.150;2022-08-03T22:39:42;10.85;;;3.65;;
71490;SDS011;59307;50.060;9.150;2022-08-03T22:42:08;4.32;;;3.47;;
71490;SDS011;59307;50.060;9.150;2022-08-03T22:44:34;8.00;;;3.60;;
71490;SDS011;59307;50.060;9.150;2022-08-03T22:47:00;5.07;;;3.20;;
71490;SDS011;59307;50.060;9.150;2022-08-03T22:49:27;4.65;;;3.40;;
71490;SDS011;59307;50.060;9.150;2022-08-03T22:51:52;4.00;;;3.22;;
71490;SDS011;59307;50.060;9.150;2022-08-03T22:54:18;4.50;;;3.30;;
71490;SDS011;59307;50.060;9.150;2022-08-03T22:56:46;6.50;;;3.40;;
71490;SDS011;59307;50.060;9.150;2022-08-03T22:59:13;5.53;;;3.43;;
71490;SDS011;59307;50.060;9.150;2022-08-03T23:01:38;4.82;;;3.25;;
71490;SDS011;59307;50.060;9.150;2022-08-03T23:04:07;5.87;;;3.20;;
71490;SDS011;59307;50.060;9.150;2022-08-03T23:06:34;4.57;;;3.40;;
71490;SDS011;59307;50.060;9.150;2022-08-03T23:09:10;6.82;;;3.50;;
71490;SDS011;59307;50.060;9.150;2022-08-03T23:11:38;4.25;;;3.30;;
71490;SDS011;59307;50.060;9.150;2022-08-03T23:14:07;5.00;;;3.13;;
71490;SDS011;59307;50.060;9.150;2022-08-03T23:16:39;5.28;;;3.10;;
71490;SDS011;59307;50.060;9.150;2022-08-03T23:19:06;5.93;;;3.10;;
71490;SDS011;59307;50.060;9.150;2022-08-03T23:21:33;5.20;;;3.25;;
71490;SDS011;59307;50.060;9.150;2022-08-03T23:23:59;7.65;;;3.10;;
71490;SDS011;59307;50.060;9.150;2022-08-03T23:26:26;4.57;;;3.10;;
71490;SDS011;59307;50.060;9.150;2022-08-03T23:28:52;5.97;;;3.10;;
71490;SDS011;59307;50.060;9.150;2022-08-03T23:31:19;4.85;;;3.20;;
71490;SDS011;59307;50.060;9.150;2022-08-03T23:33:45;6.25;;;3.28;;
71490;SDS011;59307;50.060;9.150;2022-08-03T23:36:16;5.95;;;3.20;;
71490;SDS011;59307;50.060;9.150;2022-08-03T23:38:42;4.10;;;3.00;;
71490;SDS011;59307;50.060;9.150;2022-08-03T23:41:08;4.78;;;3.28;;
71490;SDS011;59307;50.060;9.150;2022-08-03T23:43:34;6.65;;;3.60;;
71490;SDS011;59307;50.060;9.150;2022-08-03T23:46:02;4.75;;;3.50;;
71490;SDS011;59307;50.060;9.150;2022-08-03T23:48:28;4.93;;;3.60;;
71490;SDS011;59307;50.060;9.150;2022-08-03T23:50:57;4.88;;;3.13;;
71490;SDS011;59307;50.060;9.150;2022-08-03T23:53:34;6.00;;;3.27;;
71490;SDS011;59307;50.060;9.150;2022-08-03T23:56:14;6.30;;;3.40;;
